sensor_id;sensor_type;location;lat;lon;timestamp;P1;durP1;ratioP1;P2;durP2;ratioP2
10896;SDS011;5501;51.176;6.470;2022-09-12T00:04:24;10.65;;;7.32;;
10896;SDS011;5501;51.176;6.470;2022-09-12T00:09:28;9.88;;;6.35;;
10896;SDS011;5501;51.176;6.470;2022-09-12T00:14:30;9.65;;;6.18;;
10896;SDS011;5501;51.176;6.470;2022-09-12T00:19:35;7.22;;;5.50;;
10896;SDS011;5501;51.176;6.470;2022-09-12T00:24:36;7.82;;;5.50;;
10896;SDS011;5501;51.176;6.470;2022-09-12T00:29:38;8.88;;;6.60;;
10896;SDS011;5501;51.176;6.470;2022-09-12T00:34:39;8.25;;;6.72;;
10896;SDS011;5501;51.176;6.470;2022-09-12T00:39:40;9.50;;;6.88;;
10896;SDS011;5501;51.176;6.470;2022-09-12T00:44:46;10.88;;;6.65;;
10896;SDS011;5501;51.176;6.470;2022-09-12T00:49:54;14.43;;;8.32;;
10896;SDS011;5501;51.176;6.470;2022-09-12T01:00:09;15.20;;;9.23;;
10896;SDS011;5501;51.176;6.470;2022-09-12T01:05:15;15.30;;;9.27;;
10896;SDS011;5501;51.176;6.470;2022-09-12T01:10:17;13.65;;;8.63;;
10896;SDS011;5501;51.176;6.470;2022-09-12T01:15:21;10.93;;;7.85;;
10896;SDS011;5501;51.176;6.470;2022-09-12T01:20:30;13.48;;;9.02;;
10896;SDS011;5501;51.176;6.470;2022-09-12T01:31:22;13.25;;;8.43;;
10896;SDS011;5501;51.176;6.470;2022-09-12T01:36:36;12.00;;;8.15;;
10896;SDS011;5501;51.176;6.470;2022-09-12T01:47:41;16.30;;;9.20;;
10896;SDS011;5501;51.176;6.470;2022-09-12T01:53:02;13.93;;;9.13;;
10896;SDS011;5501;51.176;6.470;2022-09-12T02:03:15;14.93;;;9.13;;
10896;SDS011;5501;51.176;6.470;2022-09-12T02:08:25;16.85;;;9.45;;
10896;SDS011;5501;51.176;6.470;2022-09-12T02:13:32;16.77;;;9.77;;
10896;SDS011;5501;51.176;6.470;2022-09-12T02:18:49;12.90;;;8.32;;
10896;SDS011;5501;51.176;6.470;2022-09-12T02:23:56;14.38;;;9.43;;
10896;SDS011;5501;51.176;6.470;2022-09-12T02:29:01;13.77;;;7.85;;
10896;SDS011;5501;51.176;6.470;2022-09-12T02:34:08;14.73;;;8.10;;
10896;SDS011;5501;51.176;6.470;2022-09-12T02:39:09;12.05;;;8.43;;
10896;SDS011;5501;51.176;6.470;2022-09-12T02:44:11;12.93;;;7.60;;
10896;SDS011;5501;51.176;6.470;2022-09-12T02:49:13;14.02;;;8.00;;
10896;SDS011;5501;51.176;6.470;2022-09-12T02:54:16;13.82;;;7.35;;
10896;SDS011;5501;51.176;6.470;2022-09-12T02:59:20;13.38;;;8.77;;
10896;SDS011;5501;51.176;6.470;2022-09-12T03:20:54;18.77;;;10.80;;
10896;SDS011;5501;51.176;6.470;2022-09-12T03:26:15;18.13;;;10.48;;
10896;SDS011;5501;51.176;6.470;2022-09-12T03:31:26;16.42;;;10.80;;
10896;SDS011;5501;51.176;6.470;2022-09-12T03:36:28;18.80;;;10.15;;
10896;SDS011;5501;51.176;6.470;2022-09-12T03:41:30;17.55;;;10.38;;
10896;SDS011;5501;51.176;6.470;2022-09-12T03:46:32;21.83;;;11.40;;
10896;SDS011;5501;51.176;6.470;2022-09-12T03:51:33;21.00;;;11.68;;
10896;SDS011;5501;51.176;6.470;2022-09-12T03:56:35;20.70;;;11.48;;
10896;SDS011;5501;51.176;6.470;2022-09-12T04:01:37;19.52;;;11.65;;
10896;SDS011;5501;51.176;6.470;2022-09-12T04:06:38;19.58;;;11.52;;
10896;SDS011;5501;51.176;6.470;2022-09-12T04:11:39;19.50;;;11.88;;
10896;SDS011;5501;51.176;6.470;2022-09-12T04:16:41;21.45;;;12.25;;
10896;SDS011;5501;51.176;6.470;2022-09-12T04:21:43;22.10;;;11.75;;
10896;SDS011;5501;51.176;6.470;2022-09-12T04:26:44;20.13;;;11.93;;
10896;SDS011;5501;51.176;6.470;2022-09-12T04:31:46;23.85;;;12.55;;
10896;SDS011;5501;51.176;6.470;2022-09-12T04:36:48;22.23;;;12.60;;
10896;SDS011;5501;51.176;6.470;2022-09-12T04:41:49;23.88;;;13.23;;
10896;SDS011;5501;51.176;6.470;2022-09-12T04:46:52;24.00;;;12.50;;
10896;SDS011;5501;51.176;6.470;2022-09-12T04:51:53;24.23;;;12.15;;
10896;SDS011;5501;51.176;6.470;2022-09-12T04:56:57;22.83;;;12.88;;
10896;SDS011;5501;51.176;6.470;2022-09-12T05:02:00;21.42;;;12.55;;
10896;SDS011;5501;51.176;6.470;2022-09-12T05:07:02;24.08;;;12.43;;
10896;SDS011;5501;51.176;6.470;2022-09-12T05:12:05;24.58;;;12.13;;
10896;SDS011;5501;51.176;6.470;2022-09-12T05:17:07;24.45;;;12.98;;
10896;SDS011;5501;51.176;6.470;2022-09-12T05:22:09;22.83;;;12.93;;
10896;SDS011;5501;51.176;6.470;2022-09-12T05:27:10;24.85;;;12.93;;
10896;SDS011;5501;51.176;6.470;2022-09-12T05:32:12;20.65;;;12.35;;
10896;SDS011;5501;51.176;6.470;2022-09-12T05:37:13;23.67;;;12.82;;
10896;SDS011;5501;51.176;6.470;2022-09-12T05:42:15;24.33;;;12.88;;
10896;SDS011;5501;51.176;6.470;2022-09-12T05:47:16;18.77;;;12.45;;
10896;SDS011;5501;51.176;6.470;2022-09-12T05:52:19;18.92;;;11.57;;
10896;SDS011;5501;51.176;6.470;2022-09-12T05:57:20;19.73;;;12.93;;
10896;SDS011;5501;51.176;6.470;2022-09-12T06:02:22;19.35;;;11.13;;
10896;SDS011;5501;51.176;6.470;2022-09-12T06:07:23;20.63;;;11.73;;
10896;SDS011;5501;51.176;6.470;2022-09-12T06:12:24;20.30;;;12.45;;
10896;SDS011;5501;51.176;6.470;2022-09-12T06:17:30;21.10;;;12.32;;
10896;SDS011;5501;51.176;6.470;2022-09-12T06:22:31;25.88;;;12.68;;
10896;SDS011;5501;51.176;6.470;2022-09-12T06:27:33;20.80;;;11.60;;
10896;SDS011;5501;51.176;6.470;2022-09-12T06:32:34;19.73;;;11.68;;
10896;SDS011;5501;51.176;6.470;2022-09-12T06:37:36;20.88;;;13.20;;
10896;SDS011;5501;51.176;6.470;2022-09-12T06:42:37;17.95;;;11.95;;
10896;SDS011;5501;51.176;6.470;2022-09-12T06:47:39;21.73;;;11.95;;
10896;SDS011;5501;51.176;6.470;2022-09-12T06:52:40;21.30;;;12.52;;
10896;SDS011;5501;51.176;6.470;2022-09-12T06:57:42;23.70;;;13.35;;
10896;SDS011;5501;51.176;6.470;2022-09-12T07:02:44;23.48;;;13.52;;
10896;SDS011;5501;51.176;6.470;2022-09-12T07:07:45;22.83;;;12.18;;
10896;SDS011;5501;51.176;6.470;2022-09-12T07:12:47;19.70;;;12.65;;
10896;SDS011;5501;51.176;6.470;2022-09-12T07:17:48;19.08;;;12.02;;
10896;SDS011;5501;51.176;6.470;2022-09-12T07:22:50;18.65;;;11.60;;
10896;SDS011;5501;51.176;6.470;2022-09-12T07:27:52;17.83;;;10.95;;
10896;SDS011;5501;51.176;6.470;2022-09-12T07:32:53;19.98;;;12.55;;
10896;SDS011;5501;51.176;6.470;2022-09-12T07:37:55;23.13;;;12.45;;
10896;SDS011;5501;51.176;6.470;2022-09-12T07:42:56;19.35;;;11.93;;
10896;SDS011;5501;51.176;6.470;2022-09-12T07:47:59;18.63;;;11.65;;
10896;SDS011;5501;51.176;6.470;2022-09-12T07:53:01;23.20;;;12.48;;
10896;SDS011;5501;51.176;6.470;2022-09-12T07:58:03;19.73;;;11.13;;
10896;SDS011;5501;51.176;6.470;2022-09-12T08:03:05;19.70;;;12.38;;
10896;SDS011;5501;51.176;6.470;2022-09-12T08:08:07;20.73;;;12.27;;
10896;SDS011;5501;51.176;6.470;2022-09-12T08:13:08;19.08;;;11.55;;
10896;SDS011;5501;51.176;6.470;2022-09-12T08:18:11;20.23;;;13.05;;
10896;SDS011;5501;51.176;6.470;2022-09-12T08:23:13;18.90;;;12.20;;
10896;SDS011;5501;51.176;6.470;2022-09-12T08:28:14;21.83;;;11.27;;
10896;SDS011;5501;51.176;6.470;2022-09-12T08:33:17;21.67;;;11.65;;
10896;SDS011;5501;51.176;6.470;2022-09-12T08:38:18;17.05;;;10.95;;
10896;SDS011;5501;51.176;6.470;2022-09-12T08:49:14;15.80;;;9.75;;
10896;SDS011;5501;51.176;6.470;2022-09-12T08:54:37;15.32;;;9.68;;
10896;SDS011;5501;51.176;6.470;2022-09-12T08:59:43;16.10;;;9.95;;
10896;SDS011;5501;51.176;6.470;2022-09-12T09:04:49;12.93;;;8.85;;
10896;SDS011;5501;51.176;6.470;2022-09-12T09:30:57;9.52;;;7.55;;
10896;SDS011;5501;51.176;6.470;2022-09-12T09:36:04;11.80;;;7.80;;
10896;SDS011;5501;51.176;6.470;2022-09-12T09:46:41;8.45;;;6.15;;
10896;SDS011;5501;51.176;6.470;2022-09-12T09:51:43;6.93;;;5.97;;
10896;SDS011;5501;51.176;6.470;2022-09-12T09:56:45;7.78;;;5.50;;
10896;SDS011;5501;51.176;6.470;2022-09-12T10:01:51;7.40;;;5.60;;
10896;SDS011;5501;51.176;6.470;2022-09-12T10:06:58;8.00;;;5.47;;
10896;SDS011;5501;51.176;6.470;2022-09-12T10:12:18;9.80;;;5.35;;
10896;SDS011;5501;51.176;6.470;2022-09-12T10:17:38;7.57;;;5.05;;
10896;SDS011;5501;51.176;6.470;2022-09-12T10:22:45;7.25;;;4.45;;
10896;SDS011;5501;51.176;6.470;2022-09-12T10:27:55;7.03;;;4.90;;
10896;SDS011;5501;51.176;6.470;2022-09-12T10:33:04;4.32;;;3.90;;
10896;SDS011;5501;51.176;6.470;2022-09-12T10:38:14;5.43;;;3.97;;
10896;SDS011;5501;51.176;6.470;2022-09-12T10:48:39;2.67;;;2.47;;
10896;SDS011;5501;51.176;6.470;2022-09-12T10:53:41;4.68;;;2.75;;
10896;SDS011;5501;51.176;6.470;2022-09-12T10:58:52;2.95;;;2.53;;
10896;SDS011;5501;51.176;6.470;2022-09-12T11:30:13;2.40;;;2.20;;
10896;SDS011;5501;51.176;6.470;2022-09-12T11:35:19;2.63;;;2.33;;
10896;SDS011;5501;51.176;6.470;2022-09-12T11:40:33;4.60;;;1.95;;
10896;SDS011;5501;51.176;6.470;2022-09-12T11:45:42;1.73;;;1.63;;
10896;SDS011;5501;51.176;6.470;2022-09-12T11:50:46;2.95;;;1.80;;
10896;SDS011;5501;51.176;6.470;2022-09-12T11:55:50;1.98;;;1.40;;
10896;SDS011;5501;51.176;6.470;2022-09-12T12:06:05;1.90;;;1.80;;
10896;SDS011;5501;51.176;6.470;2022-09-12T12:11:13;2.70;;;1.83;;
10896;SDS011;5501;51.176;6.470;2022-09-12T12:16:26;2.20;;;1.75;;
10896;SDS011;5501;51.176;6.470;2022-09-12T12:21:34;2.50;;;1.90;;
10896;SDS011;5501;51.176;6.470;2022-09-12T12:26:55;3.55;;;2.10;;
10896;SDS011;5501;51.176;6.470;2022-09-12T12:58:01;1.80;;;1.70;;
10896;SDS011;5501;51.176;6.470;2022-09-12T13:08:09;1.73;;;1.50;;
10896;SDS011;5501;51.176;6.470;2022-09-12T13:13:31;1.80;;;1.70;;
10896;SDS011;5501;51.176;6.470;2022-09-12T13:18:47;1.38;;;1.27;;
10896;SDS011;5501;51.176;6.470;2022-09-12T13:24:03;1.80;;;1.70;;
10896;SDS011;5501;51.176;6.470;2022-09-12T13:29:16;2.45;;;1.63;;
10896;SDS011;5501;51.176;6.470;2022-09-12T13:34:21;2.22;;;1.80;;
10896;SDS011;5501;51.176;6.470;2022-09-12T13:39:28;1.40;;;1.30;;
10896;SDS011;5501;51.176;6.470;2022-09-12T13:44:59;1.90;;;1.80;;
10896;SDS011;5501;51.176;6.470;2022-09-12T13:50:05;3.05;;;1.70;;
10896;SDS011;5501;51.176;6.470;2022-09-12T13:55:29;2.67;;;1.92;;
10896;SDS011;5501;51.176;6.470;2022-09-12T14:00:33;2.92;;;1.63;;
10896;SDS011;5501;51.176;6.470;2022-09-12T14:05:35;1.58;;;1.48;;
10896;SDS011;5501;51.176;6.470;2022-09-12T14:10:41;1.60;;;1.50;;
10896;SDS011;5501;51.176;6.470;2022-09-12T14:15:45;2.95;;;1.70;;
10896;SDS011;5501;51.176;6.470;2022-09-12T14:20:49;1.77;;;1.67;;
10896;SDS011;5501;51.176;6.470;2022-09-12T14:25:55;1.90;;;1.70;;
10896;SDS011;5501;51.176;6.470;2022-09-12T14:41:28;1.73;;;1.63;;
10896;SDS011;5501;51.176;6.470;2022-09-12T14:46:36;3.22;;;1.73;;
10896;SDS011;5501;51.176;6.470;2022-09-12T14:51:39;2.53;;;1.77;;
10896;SDS011;5501;51.176;6.470;2022-09-12T14:56:53;2.50;;;1.90;;
10896;SDS011;5501;51.176;6.470;2022-09-12T15:07:27;2.00;;;1.80;;
10896;SDS011;5501;51.176;6.470;2022-09-12T15:12:33;2.35;;;1.90;;
10896;SDS011;5501;51.176;6.470;2022-09-12T15:17:35;1.95;;;1.85;;
10896;SDS011;5501;51.176;6.470;2022-09-12T15:22:36;1.98;;;1.73;;
10896;SDS011;5501;51.176;6.470;2022-09-12T15:27:38;2.72;;;1.83;;
10896;SDS011;5501;51.176;6.470;2022-09-12T15:32:43;1.70;;;1.60;;
10896;SDS011;5501;51.176;6.470;2022-09-12T15:37:45;1.75;;;1.60;;
10896;SDS011;5501;51.176;6.470;2022-09-12T15:42:47;1.63;;;1.52;;
10896;SDS011;5501;51.176;6.470;2022-09-12T15:47:48;2.85;;;1.85;;
10896;SDS011;5501;51.176;6.470;2022-09-12T15:52:50;4.07;;;3.00;;
10896;SDS011;5501;51.176;6.470;2022-09-12T15:57:51;2.47;;;1.92;;
10896;SDS011;5501;51.176;6.470;2022-09-12T16:02:53;2.20;;;2.00;;
10896;SDS011;5501;51.176;6.470;2022-09-12T16:07:55;4.78;;;3.92;;
10896;SDS011;5501;51.176;6.470;2022-09-12T16:12:57;5.25;;;4.20;;
10896;SDS011;5501;51.176;6.470;2022-09-12T16:17:59;10.07;;;6.43;;
10896;SDS011;5501;51.176;6.470;2022-09-12T16:23:01;4.63;;;3.65;;
10896;SDS011;5501;51.176;6.470;2022-09-12T16:28:03;2.67;;;2.40;;
10896;SDS011;5501;51.176;6.470;2022-09-12T16:33:05;2.72;;;2.42;;
10896;SDS011;5501;51.176;6.470;2022-09-12T16:38:07;3.00;;;2.70;;
10896;SDS011;5501;51.176;6.470;2022-09-12T16:43:08;4.30;;;3.90;;
10896;SDS011;5501;51.176;6.470;2022-09-12T16:48:10;2.05;;;1.85;;
10896;SDS011;5501;51.176;6.470;2022-09-12T16:53:11;3.45;;;2.10;;
10896;SDS011;5501;51.176;6.470;2022-09-12T16:58:13;2.08;;;1.80;;
10896;SDS011;5501;51.176;6.470;2022-09-12T17:03:14;2.42;;;2.20;;
10896;SDS011;5501;51.176;6.470;2022-09-12T17:08:19;3.05;;;2.75;;
10896;SDS011;5501;51.176;6.470;2022-09-12T17:13:23;4.32;;;3.95;;
10896;SDS011;5501;51.176;6.470;2022-09-12T17:18:37;3.90;;;2.92;;
10896;SDS011;5501;51.176;6.470;2022-09-12T17:23:39;4.07;;;2.70;;
10896;SDS011;5501;51.176;6.470;2022-09-12T17:28:41;2.40;;;2.20;;
10896;SDS011;5501;51.176;6.470;2022-09-12T17:33:42;3.58;;;1.88;;
10896;SDS011;5501;51.176;6.470;2022-09-12T17:38:44;2.88;;;2.20;;
10896;SDS011;5501;51.176;6.470;2022-09-12T17:43:46;4.03;;;2.38;;
10896;SDS011;5501;51.176;6.470;2022-09-12T17:48:51;2.95;;;2.45;;
10896;SDS011;5501;51.176;6.470;2022-09-12T17:53:54;4.70;;;2.30;;
10896;SDS011;5501;51.176;6.470;2022-09-12T17:59:09;3.15;;;2.47;;
10896;SDS011;5501;51.176;6.470;2022-09-12T18:04:14;3.55;;;2.22;;
10896;SDS011;5501;51.176;6.470;2022-09-12T18:09:18;7.78;;;2.83;;
10896;SDS011;5501;51.176;6.470;2022-09-12T18:14:22;3.85;;;2.60;;
10896;SDS011;5501;51.176;6.470;2022-09-12T18:19:23;3.00;;;2.70;;
10896;SDS011;5501;51.176;6.470;2022-09-12T18:24:25;3.95;;;2.88;;
10896;SDS011;5501;51.176;6.470;2022-09-12T18:29:26;4.22;;;3.33;;
10896;SDS011;5501;51.176;6.470;2022-09-12T18:34:28;4.22;;;3.10;;
10896;SDS011;5501;51.176;6.470;2022-09-12T18:39:29;3.35;;;2.95;;
10896;SDS011;5501;51.176;6.470;2022-09-12T18:44:31;4.78;;;3.15;;
10896;SDS011;5501;51.176;6.470;2022-09-12T18:49:33;2.95;;;2.70;;
10896;SDS011;5501;51.176;6.470;2022-09-12T18:54:34;7.40;;;3.30;;
10896;SDS011;5501;51.176;6.470;2022-09-12T18:59:36;3.30;;;2.85;;
10896;SDS011;5501;51.176;6.470;2022-09-12T19:04:38;4.20;;;3.38;;
10896;SDS011;5501;51.176;6.470;2022-09-12T19:09:39;4.20;;;3.80;;
10896;SDS011;5501;51.176;6.470;2022-09-12T19:14:41;4.32;;;3.90;;
10896;SDS011;5501;51.176;6.470;2022-09-12T19:19:42;4.85;;;3.88;;
10896;SDS011;5501;51.176;6.470;2022-09-12T19:24:44;7.25;;;4.03;;
10896;SDS011;5501;51.176;6.470;2022-09-12T19:29:45;7.88;;;4.00;;
10896;SDS011;5501;51.176;6.470;2022-09-12T19:34:47;3.75;;;3.33;;
10896;SDS011;5501;51.176;6.470;2022-09-12T19:39:49;4.30;;;3.58;;
10896;SDS011;5501;51.176;6.470;2022-09-12T19:44:50;4.68;;;4.15;;
10896;SDS011;5501;51.176;6.470;2022-09-12T19:49:56;6.63;;;4.13;;
10896;SDS011;5501;51.176;6.470;2022-09-12T19:54:57;5.07;;;4.28;;
10896;SDS011;5501;51.176;6.470;2022-09-12T19:59:59;6.38;;;5.07;;
10896;SDS011;5501;51.176;6.470;2022-09-12T20:05:00;5.72;;;4.20;;
10896;SDS011;5501;51.176;6.470;2022-09-12T20:10:02;7.53;;;3.53;;
10896;SDS011;5501;51.176;6.470;2022-09-12T20:15:04;3.97;;;3.30;;
10896;SDS011;5501;51.176;6.470;2022-09-12T20:20:06;6.10;;;3.42;;
10896;SDS011;5501;51.176;6.470;2022-09-12T20:25:11;6.15;;;3.67;;
10896;SDS011;5501;51.176;6.470;2022-09-12T20:30:13;6.10;;;4.43;;
10896;SDS011;5501;51.176;6.470;2022-09-12T20:35:15;4.18;;;3.70;;
10896;SDS011;5501;51.176;6.470;2022-09-12T20:40:17;5.45;;;3.90;;
10896;SDS011;5501;51.176;6.470;2022-09-12T20:45:18;4.20;;;3.80;;
10896;SDS011;5501;51.176;6.470;2022-09-12T20:50:20;5.72;;;4.93;;
10896;SDS011;5501;51.176;6.470;2022-09-12T20:55:21;4.47;;;3.97;;
10896;SDS011;5501;51.176;6.470;2022-09-12T21:00:23;4.78;;;3.80;;
10896;SDS011;5501;51.176;6.470;2022-09-12T21:05:25;4.57;;;3.97;;
10896;SDS011;5501;51.176;6.470;2022-09-12T21:10:26;7.22;;;3.78;;
10896;SDS011;5501;51.176;6.470;2022-09-12T21:15:27;5.55;;;4.10;;
10896;SDS011;5501;51.176;6.470;2022-09-12T21:20:29;5.03;;;4.35;;
10896;SDS011;5501;51.176;6.470;2022-09-12T21:25:31;6.28;;;3.92;;
10896;SDS011;5501;51.176;6.470;2022-09-12T21:30:32;5.25;;;3.88;;
10896;SDS011;5501;51.176;6.470;2022-09-12T21:35:34;7.13;;;3.80;;
10896;SDS011;5501;51.176;6.470;2022-09-12T21:40:36;7.32;;;3.90;;
10896;SDS011;5501;51.176;6.470;2022-09-12T21:45:37;5.38;;;3.85;;
10896;SDS011;5501;51.176;6.470;2022-09-12T21:50:39;7.43;;;4.10;;
10896;SDS011;5501;51.176;6.470;2022-09-12T21:55:40;4.50;;;3.55;;
10896;SDS011;5501;51.176;6.470;2022-09-12T22:00:42;4.82;;;3.40;;
10896;SDS011;5501;51.176;6.470;2022-09-12T22:05:44;4.53;;;3.38;;
10896;SDS011;5501;51.176;6.470;2022-09-12T22:10:45;7.72;;;4.10;;
10896;SDS011;5501;51.176;6.470;2022-09-12T22:15:51;3.38;;;3.08;;
10896;SDS011;5501;51.176;6.470;2022-09-12T22:21:26;4.47;;;3.63;;
10896;SDS011;5501;51.176;6.470;2022-09-12T22:26:22;3.93;;;3.10;;
10896;SDS011;5501;51.176;6.470;2022-09-12T22:31:24;4.07;;;3.55;;
10896;SDS011;5501;51.176;6.470;2022-09-12T22:36:27;5.40;;;2.67;;
10896;SDS011;5501;51.176;6.470;2022-09-12T22:41:32;3.58;;;2.65;;
10896;SDS011;5501;51.176;6.470;2022-09-12T22:46:33;4.53;;;2.85;;
10896;SDS011;5501;51.176;6.470;2022-09-12T22:51:35;2.45;;;2.25;;
10896;SDS011;5501;51.176;6.470;2022-09-12T22:56:36;2.60;;;2.20;;
10896;SDS011;5501;51.176;6.470;2022-09-12T23:01:38;3.38;;;2.13;;
10896;SDS011;5501;51.176;6.470;2022-09-12T23:06:39;3.33;;;2.40;;
10896;SDS011;5501;51.176;6.470;2022-09-12T23:11:41;2.85;;;2.28;;
10896;SDS011;5501;51.176;6.470;2022-09-12T23:16:42;3.15;;;2.10;;
10896;SDS011;5501;51.176;6.470;2022-09-12T23:21:44;2.55;;;1.80;;
10896;SDS011;5501;51.176;6.470;2022-09-12T23:26:45;2.35;;;1.75;;
10896;SDS011;5501;51.176;6.470;2022-09-12T23:31:46;1.73;;;1.63;;
10896;SDS011;5501;51.176;6.470;2022-09-12T23:36:48;1.98;;;1.80;;
10896;SDS011;5501;51.176;6.470;2022-09-12T23:41:51;2.15;;;1.95;;
10896;SDS011;5501;51.176;6.470;2022-09-12T23:46:52;2.25;;;1.75;;
10896;SDS011;5501;51.176;6.470;2022-09-12T23:51:54;2.20;;;2.00;;
10896;SDS011;5501;51.176;6.470;2022-09-12T23:56:55;2.65;;;2.08;;
